Portada
METAR-TAF:

METAR-TAF

Aeroports :

Biak, Indonèsia

latitud: 01-11S, longitud: 136-07E, altitud: 11 m

METAR: manca

Hora: 22:10 (15:10 UTC)

Pronòstic

L'informe es va fer fa 4 hores i 10 minuts, a les 11:00 UTC
Pronòstic vàlid del 08 a les 12 UTC al 09 a les 18 UTC
Vent 4 kt del Nord-Oest
Visibilitat 10 km o més
Núvols disperses a una alçada de 1800 ft
Temporalment
l' 08 a les 16 UTC al 08 a les 20 UTC
Visibilitat: 5000 m
Escasses núvols a una alçada de 1700 ft, Cumulonimbus.
pluja
Evolucionant progressivament
l' 08 a les 22 UTC al 09 a les 00 UTC
Vent 8 kt del Est/Nord-Est

TAF: WABB 081100Z 0812/0918 32004KT 9999 SCT018 TEMPO 0816/0820 5000 RA FEW017CB BECMG 0822/0900 06008KT

Observacions i pronòstics meteorològics de més de 4000 aeroports (METAR i TAF).

Les estacions disponibles són els punts grocs i vermells al mapa.

Posi el ratolí al punt desitjat per veure el nom de l'estació.

Feu clic per veure les observacions i els pronòstics meteorològics.

Per canviar el mapa: feu clic els botons verds amb una creu de color negre per apropar; al botó verd amb un guió per allunyar la imatge; o en les fletxes verdes per a mapes adjacents.


METAR-TAF: